sensor_id;sensor_type;location;lat;lon;timestamp;P1;durP1;ratioP1;P2;durP2;ratioP2
50683;SDS011;36654;45.042;38.994;2023-03-29T00:00:24;12.20;;;7.10;;
50683;SDS011;36654;45.042;38.994;2023-03-29T00:02:50;10.38;;;6.82;;
50683;SDS011;36654;45.042;38.994;2023-03-29T00:05:19;14.05;;;7.22;;
50683;SDS011;36654;45.042;38.994;2023-03-29T00:07:47;11.48;;;7.03;;
50683;SDS011;36654;45.042;38.994;2023-03-29T00:10:26;13.40;;;7.55;;
50683;SDS011;36654;45.042;38.994;2023-03-29T00:12:52;13.55;;;7.03;;
50683;SDS011;36654;45.042;38.994;2023-03-29T00:15:18;15.50;;;8.25;;
50683;SDS011;36654;45.042;38.994;2023-03-29T00:17:44;12.80;;;8.10;;
50683;SDS011;36654;45.042;38.994;2023-03-29T00:20:10;11.65;;;7.10;;
50683;SDS011;36654;45.042;38.994;2023-03-29T00:22:37;14.43;;;7.38;;
50683;SDS011;36654;45.042;38.994;2023-03-29T00:25:04;12.98;;;7.10;;
50683;SDS011;36654;45.042;38.994;2023-03-29T00:27:31;13.77;;;7.03;;
50683;SDS011;36654;45.042;38.994;2023-03-29T00:29:57;11.70;;;6.38;;
50683;SDS011;36654;45.042;38.994;2023-03-29T00:32:23;14.82;;;5.65;;
50683;SDS011;36654;45.042;38.994;2023-03-29T00:34:49;14.95;;;6.10;;
50683;SDS011;36654;45.042;38.994;2023-03-29T00:37:17;11.70;;;6.22;;
50683;SDS011;36654;45.042;38.994;2023-03-29T00:39:43;11.13;;;6.93;;
50683;SDS011;36654;45.042;38.994;2023-03-29T00:42:13;10.40;;;6.38;;
50683;SDS011;36654;45.042;38.994;2023-03-29T00:50:08;12.68;;;5.75;;
50683;SDS011;36654;45.042;38.994;2023-03-29T00:52:41;10.15;;;5.97;;
50683;SDS011;36654;45.042;38.994;2023-03-29T00:55:13;11.70;;;6.63;;
50683;SDS011;36654;45.042;38.994;2023-03-29T00:57:43;9.68;;;6.03;;
50683;SDS011;36654;45.042;38.994;2023-03-29T01:00:11;12.15;;;5.50;;
50683;SDS011;36654;45.042;38.994;2023-03-29T01:02:45;11.60;;;6.88;;
50683;SDS011;36654;45.042;38.994;2023-03-29T01:05:23;11.68;;;6.15;;
50683;SDS011;36654;45.042;38.994;2023-03-29T01:08:00;10.02;;;6.13;;
50683;SDS011;36654;45.042;38.994;2023-03-29T01:10:34;9.30;;;5.32;;
50683;SDS011;36654;45.042;38.994;2023-03-29T01:13:07;12.27;;;5.75;;
50683;SDS011;36654;45.042;38.994;2023-03-29T01:15:37;10.35;;;5.32;;
50683;SDS011;36654;45.042;38.994;2023-03-29T01:23:53;11.00;;;5.53;;
50683;SDS011;36654;45.042;38.994;2023-03-29T01:26:56;10.52;;;5.75;;
50683;SDS011;36654;45.042;38.994;2023-03-29T01:32:21;16.13;;;5.57;;
50683;SDS011;36654;45.042;38.994;2023-03-29T01:34:54;8.10;;;4.68;;
50683;SDS011;36654;45.042;38.994;2023-03-29T01:37:32;13.82;;;4.03;;
50683;SDS011;36654;45.042;38.994;2023-03-29T01:40:02;8.35;;;3.97;;
50683;SDS011;36654;45.042;38.994;2023-03-29T01:45:29;9.95;;;4.32;;
50683;SDS011;36654;45.042;38.994;2023-03-29T01:48:13;12.25;;;4.47;;
50683;SDS011;36654;45.042;38.994;2023-03-29T01:50:46;11.15;;;4.45;;
50683;SDS011;36654;45.042;38.994;2023-03-29T01:53:20;13.52;;;4.57;;
50683;SDS011;36654;45.042;38.994;2023-03-29T01:55:49;17.88;;;5.97;;
50683;SDS011;36654;45.042;38.994;2023-03-29T01:58:20;9.13;;;4.63;;
50683;SDS011;36654;45.042;38.994;2023-03-29T02:00:50;14.75;;;5.20;;
50683;SDS011;36654;45.042;38.994;2023-03-29T02:08:13;11.40;;;4.72;;
50683;SDS011;36654;45.042;38.994;2023-03-29T02:10:41;13.52;;;3.83;;
50683;SDS011;36654;45.042;38.994;2023-03-29T02:13:08;11.13;;;4.30;;
50683;SDS011;36654;45.042;38.994;2023-03-29T02:15:34;11.25;;;4.15;;
50683;SDS011;36654;45.042;38.994;2023-03-29T02:17:59;7.60;;;4.07;;
50683;SDS011;36654;45.042;38.994;2023-03-29T02:20:32;13.52;;;4.60;;
50683;SDS011;36654;45.042;38.994;2023-03-29T02:23:27;10.13;;;4.13;;
50683;SDS011;36654;45.042;38.994;2023-03-29T02:26:00;17.67;;;4.45;;
50683;SDS011;36654;45.042;38.994;2023-03-29T02:28:28;11.77;;;4.00;;
50683;SDS011;36654;45.042;38.994;2023-03-29T02:30:56;11.98;;;4.15;;
50683;SDS011;36654;45.042;38.994;2023-03-29T02:36:07;9.18;;;3.72;;
50683;SDS011;36654;45.042;38.994;2023-03-29T02:38:38;10.05;;;2.78;;
50683;SDS011;36654;45.042;38.994;2023-03-29T02:41:04;8.35;;;2.83;;
50683;SDS011;36654;45.042;38.994;2023-03-29T02:43:32;6.75;;;2.15;;
50683;SDS011;36654;45.042;38.994;2023-03-29T02:46:00;11.20;;;2.63;;
50683;SDS011;36654;45.042;38.994;2023-03-29T02:48:27;6.60;;;2.60;;
50683;SDS011;36654;45.042;38.994;2023-03-29T02:50:57;6.35;;;2.40;;
50683;SDS011;36654;45.042;38.994;2023-03-29T02:53:35;9.27;;;2.70;;
50683;SDS011;36654;45.042;38.994;2023-03-29T02:56:06;5.30;;;1.88;;
50683;SDS011;36654;45.042;38.994;2023-03-29T02:58:32;8.50;;;2.22;;
50683;SDS011;36654;45.042;38.994;2023-03-29T03:01:00;10.75;;;3.33;;
50683;SDS011;36654;45.042;38.994;2023-03-29T03:03:27;11.52;;;2.58;;
50683;SDS011;36654;45.042;38.994;2023-03-29T03:05:53;10.25;;;2.22;;
50683;SDS011;36654;45.042;38.994;2023-03-29T03:08:19;6.90;;;3.05;;
50683;SDS011;36654;45.042;38.994;2023-03-29T03:10:44;7.93;;;2.50;;
50683;SDS011;36654;45.042;38.994;2023-03-29T03:13:10;5.55;;;2.63;;
50683;SDS011;36654;45.042;38.994;2023-03-29T03:15:38;6.97;;;2.58;;
50683;SDS011;36654;45.042;38.994;2023-03-29T03:18:07;8.90;;;2.40;;
50683;SDS011;36654;45.042;38.994;2023-03-29T03:20:34;5.18;;;2.22;;
50683;SDS011;36654;45.042;38.994;2023-03-29T03:23:00;8.15;;;2.85;;
50683;SDS011;36654;45.042;38.994;2023-03-29T03:25:27;9.32;;;2.40;;
50683;SDS011;36654;45.042;38.994;2023-03-29T03:27:53;8.43;;;3.58;;
50683;SDS011;36654;45.042;38.994;2023-03-29T03:30:19;7.20;;;2.72;;
50683;SDS011;36654;45.042;38.994;2023-03-29T03:32:45;6.68;;;2.35;;
50683;SDS011;36654;45.042;38.994;2023-03-29T03:35:10;6.97;;;2.58;;
50683;SDS011;36654;45.042;38.994;2023-03-29T03:37:36;4.07;;;2.65;;
50683;SDS011;36654;45.042;38.994;2023-03-29T03:40:03;6.93;;;2.53;;
50683;SDS011;36654;45.042;38.994;2023-03-29T03:42:31;8.35;;;2.65;;
50683;SDS011;36654;45.042;38.994;2023-03-29T03:44:56;9.07;;;2.55;;
50683;SDS011;36654;45.042;38.994;2023-03-29T03:47:22;6.63;;;2.70;;
50683;SDS011;36654;45.042;38.994;2023-03-29T03:49:48;13.68;;;3.00;;
50683;SDS011;36654;45.042;38.994;2023-03-29T03:52:15;4.90;;;2.40;;
50683;SDS011;36654;45.042;38.994;2023-03-29T03:54:41;9.40;;;2.55;;
50683;SDS011;36654;45.042;38.994;2023-03-29T03:57:08;6.03;;;2.80;;
50683;SDS011;36654;45.042;38.994;2023-03-29T03:59:33;6.15;;;3.10;;
50683;SDS011;36654;45.042;38.994;2023-03-29T04:01:59;4.90;;;3.08;;
50683;SDS011;36654;45.042;38.994;2023-03-29T04:04:25;7.03;;;3.45;;
50683;SDS011;36654;45.042;38.994;2023-03-29T04:06:51;7.95;;;2.70;;
50683;SDS011;36654;45.042;38.994;2023-03-29T04:09:16;8.27;;;3.83;;
50683;SDS011;36654;45.042;38.994;2023-03-29T04:11:42;45.45;;;24.25;;
50683;SDS011;36654;45.042;38.994;2023-03-29T04:14:08;10.05;;;7.60;;
50683;SDS011;36654;45.042;38.994;2023-03-29T04:16:34;9.55;;;3.67;;
50683;SDS011;36654;45.042;38.994;2023-03-29T04:19:00;8.27;;;3.53;;
50683;SDS011;36654;45.042;38.994;2023-03-29T04:21:26;8.45;;;3.58;;
50683;SDS011;36654;45.042;38.994;2023-03-29T04:23:52;9.10;;;3.20;;
50683;SDS011;36654;45.042;38.994;2023-03-29T04:26:17;5.70;;;3.53;;
50683;SDS011;36654;45.042;38.994;2023-03-29T04:28:43;7.70;;;3.40;;
50683;SDS011;36654;45.042;38.994;2023-03-29T04:31:12;6.95;;;3.33;;
50683;SDS011;36654;45.042;38.994;2023-03-29T04:33:39;8.98;;;3.20;;
50683;SDS011;36654;45.042;38.994;2023-03-29T04:36:05;6.28;;;3.10;;
50683;SDS011;36654;45.042;38.994;2023-03-29T04:38:31;7.65;;;3.35;;
50683;SDS011;36654;45.042;38.994;2023-03-29T04:41:00;6.32;;;2.70;;
50683;SDS011;36654;45.042;38.994;2023-03-29T04:43:27;4.97;;;3.03;;
50683;SDS011;36654;45.042;38.994;2023-03-29T04:45:55;3.83;;;3.50;;
50683;SDS011;36654;45.042;38.994;2023-03-29T04:48:22;4.00;;;3.47;;
50683;SDS011;36654;45.042;38.994;2023-03-29T04:50:47;3.42;;;2.92;;
50683;SDS011;36654;45.042;38.994;2023-03-29T04:53:13;7.60;;;3.55;;
50683;SDS011;36654;45.042;38.994;2023-03-29T04:55:39;9.55;;;3.40;;
50683;SDS011;36654;45.042;38.994;2023-03-29T04:58:05;6.25;;;3.80;;
50683;SDS011;36654;45.042;38.994;2023-03-29T05:00:31;4.05;;;2.88;;
50683;SDS011;36654;45.042;38.994;2023-03-29T05:02:56;4.63;;;3.53;;
50683;SDS011;36654;45.042;38.994;2023-03-29T05:05:22;9.93;;;6.22;;
50683;SDS011;36654;45.042;38.994;2023-03-29T05:07:49;11.60;;;5.93;;
50683;SDS011;36654;45.042;38.994;2023-03-29T05:10:15;5.75;;;3.47;;
50683;SDS011;36654;45.042;38.994;2023-03-29T05:12:41;3.67;;;3.00;;
50683;SDS011;36654;45.042;38.994;2023-03-29T05:15:07;4.38;;;3.20;;
50683;SDS011;36654;45.042;38.994;2023-03-29T05:17:33;5.18;;;2.90;;
50683;SDS011;36654;45.042;38.994;2023-03-29T05:19:59;4.78;;;3.20;;
50683;SDS011;36654;45.042;38.994;2023-03-29T05:22:25;3.95;;;2.83;;
50683;SDS011;36654;45.042;38.994;2023-03-29T05:24:52;6.47;;;3.70;;
50683;SDS011;36654;45.042;38.994;2023-03-29T05:27:18;6.20;;;3.78;;
50683;SDS011;36654;45.042;38.994;2023-03-29T05:29:46;7.97;;;4.20;;
50683;SDS011;36654;45.042;38.994;2023-03-29T05:32:13;5.38;;;4.20;;
50683;SDS011;36654;45.042;38.994;2023-03-29T05:34:39;6.72;;;4.47;;
50683;SDS011;36654;45.042;38.994;2023-03-29T05:37:05;5.70;;;3.65;;
50683;SDS011;36654;45.042;38.994;2023-03-29T05:39:31;12.82;;;4.47;;
50683;SDS011;36654;45.042;38.994;2023-03-29T05:41:57;6.82;;;3.83;;
50683;SDS011;36654;45.042;38.994;2023-03-29T05:44:24;7.82;;;4.18;;
50683;SDS011;36654;45.042;38.994;2023-03-29T05:46:49;6.95;;;3.88;;
50683;SDS011;36654;45.042;38.994;2023-03-29T05:49:15;5.47;;;4.03;;
50683;SDS011;36654;45.042;38.994;2023-03-29T05:51:41;7.07;;;3.78;;
50683;SDS011;36654;45.042;38.994;2023-03-29T05:54:09;8.00;;;4.13;;
50683;SDS011;36654;45.042;38.994;2023-03-29T05:56:36;8.27;;;5.20;;
50683;SDS011;36654;45.042;38.994;2023-03-29T05:59:02;7.07;;;4.70;;
50683;SDS011;36654;45.042;38.994;2023-03-29T06:01:27;15.27;;;6.60;;
50683;SDS011;36654;45.042;38.994;2023-03-29T06:03:54;10.45;;;4.40;;
50683;SDS011;36654;45.042;38.994;2023-03-29T06:06:21;7.97;;;3.97;;
50683;SDS011;36654;45.042;38.994;2023-03-29T06:08:46;8.30;;;4.68;;
50683;SDS011;36654;45.042;38.994;2023-03-29T06:11:12;8.82;;;5.22;;
50683;SDS011;36654;45.042;38.994;2023-03-29T06:13:39;10.95;;;5.22;;
50683;SDS011;36654;45.042;38.994;2023-03-29T06:16:06;6.25;;;4.55;;
50683;SDS011;36654;45.042;38.994;2023-03-29T06:18:34;8.05;;;4.63;;
50683;SDS011;36654;45.042;38.994;2023-03-29T06:21:00;7.63;;;4.25;;
50683;SDS011;36654;45.042;38.994;2023-03-29T06:23:26;8.27;;;4.57;;
50683;SDS011;36654;45.042;38.994;2023-03-29T06:25:53;5.05;;;4.18;;
50683;SDS011;36654;45.042;38.994;2023-03-29T06:28:19;7.70;;;4.32;;
50683;SDS011;36654;45.042;38.994;2023-03-29T06:30:45;7.82;;;4.40;;
50683;SDS011;36654;45.042;38.994;2023-03-29T06:33:12;7.15;;;4.95;;
50683;SDS011;36654;45.042;38.994;2023-03-29T06:35:42;8.75;;;5.10;;
50683;SDS011;36654;45.042;38.994;2023-03-29T06:38:10;6.50;;;4.80;;
50683;SDS011;36654;45.042;38.994;2023-03-29T06:40:35;12.95;;;5.93;;
50683;SDS011;36654;45.042;38.994;2023-03-29T06:43:02;11.63;;;5.15;;
50683;SDS011;36654;45.042;38.994;2023-03-29T06:45:30;11.13;;;6.50;;
50683;SDS011;36654;45.042;38.994;2023-03-29T06:48:00;10.18;;;4.50;;
50683;SDS011;36654;45.042;38.994;2023-03-29T06:50:27;8.43;;;5.47;;
50683;SDS011;36654;45.042;38.994;2023-03-29T06:52:53;7.03;;;4.40;;
50683;SDS011;36654;45.042;38.994;2023-03-29T06:55:19;7.95;;;5.05;;
50683;SDS011;36654;45.042;38.994;2023-03-29T06:57:46;9.18;;;4.45;;
50683;SDS011;36654;45.042;38.994;2023-03-29T07:00:13;6.70;;;4.65;;
50683;SDS011;36654;45.042;38.994;2023-03-29T07:02:54;12.13;;;5.22;;
50683;SDS011;36654;45.042;38.994;2023-03-29T07:05:23;7.53;;;4.78;;
50683;SDS011;36654;45.042;38.994;2023-03-29T07:07:51;6.55;;;4.18;;
50683;SDS011;36654;45.042;38.994;2023-03-29T07:10:20;6.20;;;4.22;;
50683;SDS011;36654;45.042;38.994;2023-03-29T07:12:50;6.38;;;4.32;;
50683;SDS011;36654;45.042;38.994;2023-03-29T07:15:17;5.40;;;4.13;;
50683;SDS011;36654;45.042;38.994;2023-03-29T07:17:44;6.82;;;5.32;;
50683;SDS011;36654;45.042;38.994;2023-03-29T07:20:10;9.77;;;5.18;;
50683;SDS011;36654;45.042;38.994;2023-03-29T07:22:42;8.18;;;4.47;;
50683;SDS011;36654;45.042;38.994;2023-03-29T07:25:09;8.60;;;3.70;;
50683;SDS011;36654;45.042;38.994;2023-03-29T07:27:36;8.55;;;4.72;;
50683;SDS011;36654;45.042;38.994;2023-03-29T07:30:04;6.57;;;4.50;;
50683;SDS011;36654;45.042;38.994;2023-03-29T07:32:34;6.00;;;4.22;;
50683;SDS011;36654;45.042;38.994;2023-03-29T07:35:04;7.43;;;4.40;;
50683;SDS011;36654;45.042;38.994;2023-03-29T07:37:32;5.25;;;3.85;;
50683;SDS011;36654;45.042;38.994;2023-03-29T07:39:59;6.10;;;4.43;;
50683;SDS011;36654;45.042;38.994;2023-03-29T07:42:27;4.53;;;3.25;;
50683;SDS011;36654;45.042;38.994;2023-03-29T07:44:53;3.75;;;3.20;;
50683;SDS011;36654;45.042;38.994;2023-03-29T07:47:19;5.00;;;3.78;;
50683;SDS011;36654;45.042;38.994;2023-03-29T07:49:44;7.57;;;4.57;;
50683;SDS011;36654;45.042;38.994;2023-03-29T07:52:10;7.50;;;4.55;;
50683;SDS011;36654;45.042;38.994;2023-03-29T07:54:36;9.25;;;5.47;;
50683;SDS011;36654;45.042;38.994;2023-03-29T07:57:02;6.10;;;3.45;;
50683;SDS011;36654;45.042;38.994;2023-03-29T07:59:28;4.97;;;3.25;;
50683;SDS011;36654;45.042;38.994;2023-03-29T08:01:54;8.00;;;4.47;;
50683;SDS011;36654;45.042;38.994;2023-03-29T08:04:20;8.32;;;3.95;;
50683;SDS011;36654;45.042;38.994;2023-03-29T08:06:46;6.88;;;4.20;;
50683;SDS011;36654;45.042;38.994;2023-03-29T08:09:13;3.55;;;2.97;;
50683;SDS011;36654;45.042;38.994;2023-03-29T08:11:39;3.53;;;2.70;;
50683;SDS011;36654;45.042;38.994;2023-03-29T08:14:05;4.07;;;3.55;;
50683;SDS011;36654;45.042;38.994;2023-03-29T08:16:31;3.97;;;3.15;;
50683;SDS011;36654;45.042;38.994;2023-03-29T08:18:57;4.50;;;3.55;;
50683;SDS011;36654;45.042;38.994;2023-03-29T08:21:23;4.43;;;2.58;;
50683;SDS011;36654;45.042;38.994;2023-03-29T08:23:49;4.07;;;3.20;;
50683;SDS011;36654;45.042;38.994;2023-03-29T08:26:16;4.38;;;3.30;;
50683;SDS011;36654;45.042;38.994;2023-03-29T08:28:42;3.83;;;3.33;;
50683;SDS011;36654;45.042;38.994;2023-03-29T08:31:08;4.65;;;3.45;;
50683;SDS011;36654;45.042;38.994;2023-03-29T08:33:34;4.15;;;3.08;;
50683;SDS011;36654;45.042;38.994;2023-03-29T08:36:01;3.05;;;2.75;;
50683;SDS011;36654;45.042;38.994;2023-03-29T08:38:27;7.50;;;3.83;;
50683;SDS011;36654;45.042;38.994;2023-03-29T08:40:53;6.50;;;2.95;;
50683;SDS011;36654;45.042;38.994;2023-03-29T08:48:37;4.95;;;2.80;;
50683;SDS011;36654;45.042;38.994;2023-03-29T08:54:05;3.97;;;2.40;;
50683;SDS011;36654;45.042;38.994;2023-03-29T08:56:36;6.03;;;2.63;;
50683;SDS011;36654;45.042;38.994;2023-03-29T08:59:04;4.80;;;2.90;;
50683;SDS011;36654;45.042;38.994;2023-03-29T09:01:41;2.90;;;2.60;;
50683;SDS011;36654;45.042;38.994;2023-03-29T09:04:18;4.68;;;2.58;;
50683;SDS011;36654;45.042;38.994;2023-03-29T09:06:47;3.50;;;2.70;;
50683;SDS011;36654;45.042;38.994;2023-03-29T09:09:14;2.95;;;2.72;;
50683;SDS011;36654;45.042;38.994;2023-03-29T09:20:12;3.90;;;3.35;;
50683;SDS011;36654;45.042;38.994;2023-03-29T09:22:55;4.32;;;3.15;;
50683;SDS011;36654;45.042;38.994;2023-03-29T09:28:35;3.65;;;3.08;;
50683;SDS011;36654;45.042;38.994;2023-03-29T09:31:12;3.47;;;2.90;;
50683;SDS011;36654;45.042;38.994;2023-03-29T09:33:43;3.60;;;2.75;;
50683;SDS011;36654;45.042;38.994;2023-03-29T09:38:54;3.70;;;2.85;;
50683;SDS011;36654;45.042;38.994;2023-03-29T09:41:40;4.35;;;2.67;;
50683;SDS011;36654;45.042;38.994;2023-03-29T09:44:38;3.97;;;2.55;;
50683;SDS011;36654;45.042;38.994;2023-03-29T09:50:05;5.20;;;2.45;;
50683;SDS011;36654;45.042;38.994;2023-03-29T09:52:39;2.75;;;2.53;;
50683;SDS011;36654;45.042;38.994;2023-03-29T09:55:05;2.60;;;2.17;;
50683;SDS011;36654;45.042;38.994;2023-03-29T09:57:31;5.15;;;2.72;;
50683;SDS011;36654;45.042;38.994;2023-03-29T09:59:58;2.20;;;1.90;;
50683;SDS011;36654;45.042;38.994;2023-03-29T10:02:29;5.10;;;2.80;;
50683;SDS011;36654;45.042;38.994;2023-03-29T10:04:56;5.60;;;3.03;;
50683;SDS011;36654;45.042;38.994;2023-03-29T10:07:40;3.97;;;2.45;;
50683;SDS011;36654;45.042;38.994;2023-03-29T10:10:21;2.33;;;2.13;;
50683;SDS011;36654;45.042;38.994;2023-03-29T10:12:53;3.10;;;2.08;;
50683;SDS011;36654;45.042;38.994;2023-03-29T10:15:25;1.88;;;1.70;;
50683;SDS011;36654;45.042;38.994;2023-03-29T10:17:57;2.38;;;2.17;;
50683;SDS011;36654;45.042;38.994;2023-03-29T10:20:27;2.25;;;1.80;;
50683;SDS011;36654;45.042;38.994;2023-03-29T10:22:55;1.67;;;1.58;;
50683;SDS011;36654;45.042;38.994;2023-03-29T10:25:26;2.03;;;1.90;;
50683;SDS011;36654;45.042;38.994;2023-03-29T10:27:56;1.95;;;1.73;;
50683;SDS011;36654;45.042;38.994;2023-03-29T10:30:31;3.47;;;2.70;;
50683;SDS011;36654;45.042;38.994;2023-03-29T10:33:02;4.15;;;2.78;;
50683;SDS011;36654;45.042;38.994;2023-03-29T10:35:31;4.82;;;2.53;;
50683;SDS011;36654;45.042;38.994;2023-03-29T10:38:03;3.47;;;2.92;;
50683;SDS011;36654;45.042;38.994;2023-03-29T10:40:38;5.20;;;4.00;;
50683;SDS011;36654;45.042;38.994;2023-03-29T10:43:19;1.70;;;1.60;;
50683;SDS011;36654;45.042;38.994;2023-03-29T10:45:54;2.85;;;1.80;;
50683;SDS011;36654;45.042;38.994;2023-03-29T10:48:33;1.60;;;1.50;;
50683;SDS011;36654;45.042;38.994;2023-03-29T10:51:00;3.50;;;1.85;;
50683;SDS011;36654;45.042;38.994;2023-03-29T10:53:35;1.60;;;1.40;;
50683;SDS011;36654;45.042;38.994;2023-03-29T11:07:21;1.60;;;1.50;;
50683;SDS011;36654;45.042;38.994;2023-03-29T11:20:37;3.85;;;1.55;;
50683;SDS011;36654;45.042;38.994;2023-03-29T11:25:48;5.10;;;2.20;;
50683;SDS011;36654;45.042;38.994;2023-03-29T11:31:07;4.50;;;1.92;;
50683;SDS011;36654;45.042;38.994;2023-03-29T11:33:56;2.53;;;2.00;;
50683;SDS011;36654;45.042;38.994;2023-03-29T11:36:35;2.83;;;2.35;;
50683;SDS011;36654;45.042;38.994;2023-03-29T11:41:37;2.17;;;1.95;;
50683;SDS011;36654;45.042;38.994;2023-03-29T11:49:39;4.53;;;1.98;;
50683;SDS011;36654;45.042;38.994;2023-03-29T11:52:29;1.77;;;1.65;;
50683;SDS011;36654;45.042;38.994;2023-03-29T11:57:58;2.80;;;2.10;;
50683;SDS011;36654;45.042;38.994;2023-03-29T12:05:44;2.03;;;1.70;;
50683;SDS011;36654;45.042;38.994;2023-03-29T12:08:14;2.83;;;1.88;;
50683;SDS011;36654;45.042;38.994;2023-03-29T12:11:01;2.38;;;2.10;;
50683;SDS011;36654;45.042;38.994;2023-03-29T12:13:56;1.58;;;1.48;;
50683;SDS011;36654;45.042;38.994;2023-03-29T12:16:30;2.58;;;2.10;;
50683;SDS011;36654;45.042;38.994;2023-03-29T12:19:07;2.83;;;2.10;;
50683;SDS011;36654;45.042;38.994;2023-03-29T12:21:41;2.03;;;1.75;;
50683;SDS011;36654;45.042;38.994;2023-03-29T12:24:10;1.42;;;1.33;;
50683;SDS011;36654;45.042;38.994;2023-03-29T12:29:40;2.55;;;1.65;;
50683;SDS011;36654;45.042;38.994;2023-03-29T12:35:05;4.22;;;2.45;;
50683;SDS011;36654;45.042;38.994;2023-03-29T12:37:57;2.13;;;1.70;;
50683;SDS011;36654;45.042;38.994;2023-03-29T12:40:39;1.52;;;1.42;;
50683;SDS011;36654;45.042;38.994;2023-03-29T12:43:13;6.65;;;4.22;;
50683;SDS011;36654;45.042;38.994;2023-03-29T12:45:45;5.57;;;3.25;;
50683;SDS011;36654;45.042;38.994;2023-03-29T12:48:16;1.65;;;1.55;;
50683;SDS011;36654;45.042;38.994;2023-03-29T12:50:49;2.30;;;2.10;;
50683;SDS011;36654;45.042;38.994;2023-03-29T12:53:20;3.03;;;2.00;;
50683;SDS011;36654;45.042;38.994;2023-03-29T12:58:31;2.70;;;1.85;;
50683;SDS011;36654;45.042;38.994;2023-03-29T13:01:26;2.75;;;2.00;;
50683;SDS011;36654;45.042;38.994;2023-03-29T13:07:04;2.38;;;1.55;;
50683;SDS011;36654;45.042;38.994;2023-03-29T13:09:30;2.22;;;1.70;;
50683;SDS011;36654;45.042;38.994;2023-03-29T13:14:38;2.28;;;1.77;;
50683;SDS011;36654;45.042;38.994;2023-03-29T13:17:08;4.13;;;1.90;;
50683;SDS011;36654;45.042;38.994;2023-03-29T13:19:47;3.63;;;1.90;;
50683;SDS011;36654;45.042;38.994;2023-03-29T13:22:46;5.20;;;2.92;;
50683;SDS011;36654;45.042;38.994;2023-03-29T13:39:27;3.90;;;2.22;;
50683;SDS011;36654;45.042;38.994;2023-03-29T13:48:00;2.22;;;2.03;;
50683;SDS011;36654;45.042;38.994;2023-03-29T13:51:02;2.85;;;1.80;;
50683;SDS011;36654;45.042;38.994;2023-03-29T13:53:56;2.17;;;2.05;;
50683;SDS011;36654;45.042;38.994;2023-03-29T13:58:55;2.45;;;1.88;;
50683;SDS011;36654;45.042;38.994;2023-03-29T14:04:16;4.32;;;2.47;;
50683;SDS011;36654;45.042;38.994;2023-03-29T14:06:49;2.55;;;2.10;;
50683;SDS011;36654;45.042;38.994;2023-03-29T14:09:18;2.58;;;2.38;;
50683;SDS011;36654;45.042;38.994;2023-03-29T14:11:54;6.80;;;2.90;;
50683;SDS011;36654;45.042;38.994;2023-03-29T14:14:24;3.55;;;2.50;;
50683;SDS011;36654;45.042;38.994;2023-03-29T14:16:54;3.75;;;2.88;;
50683;SDS011;36654;45.042;38.994;2023-03-29T14:19:23;4.90;;;3.15;;
50683;SDS011;36654;45.042;38.994;2023-03-29T14:21:56;6.15;;;2.80;;
50683;SDS011;36654;45.042;38.994;2023-03-29T14:25:06;3.45;;;3.15;;
50683;SDS011;36654;45.042;38.994;2023-03-29T14:27:15;3.22;;;2.90;;
50683;SDS011;36654;45.042;38.994;2023-03-29T14:29:46;4.90;;;2.92;;
50683;SDS011;36654;45.042;38.994;2023-03-29T14:32:14;6.50;;;3.53;;
50683;SDS011;36654;45.042;38.994;2023-03-29T14:34:42;4.88;;;3.55;;
50683;SDS011;36654;45.042;38.994;2023-03-29T14:37:11;3.20;;;2.90;;
50683;SDS011;36654;45.042;38.994;2023-03-29T14:39:40;3.58;;;3.28;;
50683;SDS011;36654;45.042;38.994;2023-03-29T14:42:10;5.85;;;3.53;;
50683;SDS011;36654;45.042;38.994;2023-03-29T14:44:46;4.05;;;3.65;;
50683;SDS011;36654;45.042;38.994;2023-03-29T14:47:24;4.68;;;3.30;;
50683;SDS011;36654;45.042;38.994;2023-03-29T14:49:52;7.05;;;3.97;;
50683;SDS011;36654;45.042;38.994;2023-03-29T14:52:21;4.95;;;3.78;;
50683;SDS011;36654;45.042;38.994;2023-03-29T14:54:49;5.03;;;3.78;;
50683;SDS011;36654;45.042;38.994;2023-03-29T14:57:17;7.22;;;4.10;;
50683;SDS011;36654;45.042;38.994;2023-03-29T14:59:46;5.53;;;3.63;;
50683;SDS011;36654;45.042;38.994;2023-03-29T15:02:31;6.75;;;4.68;;
50683;SDS011;36654;45.042;38.994;2023-03-29T15:05:01;7.88;;;4.07;;
50683;SDS011;36654;45.042;38.994;2023-03-29T15:07:29;5.93;;;4.32;;
50683;SDS011;36654;45.042;38.994;2023-03-29T15:10:00;10.02;;;4.43;;
50683;SDS011;36654;45.042;38.994;2023-03-29T15:14:55;6.55;;;4.32;;
50683;SDS011;36654;45.042;38.994;2023-03-29T15:17:40;4.25;;;3.75;;
50683;SDS011;36654;45.042;38.994;2023-03-29T15:20:11;5.55;;;4.20;;
50683;SDS011;36654;45.042;38.994;2023-03-29T15:22:50;6.80;;;3.78;;
50683;SDS011;36654;45.042;38.994;2023-03-29T15:25:18;5.63;;;3.60;;
50683;SDS011;36654;45.042;38.994;2023-03-29T15:27:46;4.30;;;3.45;;
50683;SDS011;36654;45.042;38.994;2023-03-29T15:30:18;4.63;;;3.70;;
50683;SDS011;36654;45.042;38.994;2023-03-29T15:32:44;6.43;;;3.60;;
50683;SDS011;36654;45.042;38.994;2023-03-29T15:35:20;4.15;;;3.60;;
50683;SDS011;36654;45.042;38.994;2023-03-29T15:37:48;3.67;;;3.30;;
50683;SDS011;36654;45.042;38.994;2023-03-29T15:40:15;5.35;;;3.33;;
50683;SDS011;36654;45.042;38.994;2023-03-29T15:42:43;6.07;;;3.00;;
50683;SDS011;36654;45.042;38.994;2023-03-29T15:45:13;4.50;;;3.20;;
50683;SDS011;36654;45.042;38.994;2023-03-29T15:47:42;3.95;;;3.20;;
50683;SDS011;36654;45.042;38.994;2023-03-29T15:50:08;5.88;;;3.50;;
50683;SDS011;36654;45.042;38.994;2023-03-29T15:52:35;3.08;;;2.80;;
50683;SDS011;36654;45.042;38.994;2023-03-29T15:55:02;4.13;;;3.08;;
50683;SDS011;36654;45.042;38.994;2023-03-29T15:57:28;4.32;;;3.20;;
50683;SDS011;36654;45.042;38.994;2023-03-29T15:59:55;5.15;;;3.88;;
50683;SDS011;36654;45.042;38.994;2023-03-29T16:02:22;4.88;;;3.08;;
50683;SDS011;36654;45.042;38.994;2023-03-29T16:04:49;4.93;;;2.88;;
50683;SDS011;36654;45.042;38.994;2023-03-29T16:07:15;3.72;;;2.90;;
50683;SDS011;36654;45.042;38.994;2023-03-29T16:09:42;4.65;;;2.88;;
50683;SDS011;36654;45.042;38.994;2023-03-29T16:12:09;4.22;;;2.90;;
50683;SDS011;36654;45.042;38.994;2023-03-29T16:14:35;3.53;;;2.70;;
50683;SDS011;36654;45.042;38.994;2023-03-29T16:17:01;3.63;;;3.03;;
50683;SDS011;36654;45.042;38.994;2023-03-29T16:19:29;3.22;;;2.80;;
50683;SDS011;36654;45.042;38.994;2023-03-29T16:21:55;5.13;;;3.00;;
50683;SDS011;36654;45.042;38.994;2023-03-29T16:24:22;5.18;;;3.17;;
50683;SDS011;36654;45.042;38.994;2023-03-29T16:26:50;3.22;;;2.60;;
50683;SDS011;36654;45.042;38.994;2023-03-29T16:29:16;3.28;;;2.80;;
50683;SDS011;36654;45.042;38.994;2023-03-29T16:31:43;4.18;;;3.33;;
50683;SDS011;36654;45.042;38.994;2023-03-29T16:34:09;4.85;;;3.40;;
50683;SDS011;36654;45.042;38.994;2023-03-29T16:36:39;3.47;;;3.17;;
50683;SDS011;36654;45.042;38.994;2023-03-29T16:39:05;3.63;;;3.00;;
50683;SDS011;36654;45.042;38.994;2023-03-29T16:41:31;3.97;;;3.17;;
50683;SDS011;36654;45.042;38.994;2023-03-29T16:43:57;4.68;;;3.17;;
50683;SDS011;36654;45.042;38.994;2023-03-29T16:46:23;4.25;;;3.20;;
50683;SDS011;36654;45.042;38.994;2023-03-29T16:48:50;4.03;;;2.63;;
50683;SDS011;36654;45.042;38.994;2023-03-29T16:51:17;3.58;;;3.25;;
50683;SDS011;36654;45.042;38.994;2023-03-29T16:53:46;4.22;;;3.40;;
50683;SDS011;36654;45.042;38.994;2023-03-29T16:56:13;3.60;;;3.30;;
50683;SDS011;36654;45.042;38.994;2023-03-29T16:58:39;6.93;;;4.25;;
50683;SDS011;36654;45.042;38.994;2023-03-29T17:01:06;4.82;;;3.70;;
50683;SDS011;36654;45.042;38.994;2023-03-29T17:03:36;6.78;;;3.70;;